Time;durP1;ratioP1;P1;durP2;ratioP2;P2;SDS_P1;SDS_P2;PMS_P1;PMS_P2;Temp;Humidity;BMP_temperature;BMP_pressure;BME280_temperature;BME280_humidity;BME280_pressure;Samples;Min_cycle;Max_cycle;Signal;HPM_P1;HPM_P2
2021/08/10 00:02:14;;;;;;;2.80;1.38;;;17.70;94.60;;;;;;6134846;23;20008;-87
2021/08/10 00:05:30;;;;;;;4.60;1.60;;;17.60;94.50;;;;;;6134227;23;20017;-88
2021/08/10 00:08:39;;;;;;;2.60;1.58;;;17.60;94.50;;;;;;6086177;23;20025;-88
2021/08/10 00:11:15;;;;;;;3.80;1.42;;;17.60;94.50;;;;;;6153802;23;20005;-88
2021/08/10 00:13:46;;;;;;;3.28;1.70;;;17.60;94.50;;;;;;6134534;23;20413;-89
2021/08/10 00:16:14;;;;;;;2.40;1.35;;;17.50;94.50;;;;;;6134965;23;20001;-87
2021/08/10 00:19:08;;;;;;;2.83;1.73;;;17.50;94.50;;;;;;6134892;23;20009;-89
2021/08/10 00:21:34;;;;;;;2.95;1.60;;;17.50;94.50;;;;;;6135119;23;20081;-88
2021/08/10 00:24:04;;;;;;;2.25;1.45;;;17.50;94.50;;;;;;6134103;23;20013;-88
2021/08/10 00:26:45;;;;;;;2.55;1.15;;;17.50;94.50;;;;;;6134005;23;20016;-88
2021/08/10 00:29:11;;;;;;;2.17;1.50;;;17.50;94.40;;;;;;6132382;23;20020;-87
2021/08/10 00:31:53;;;;;;;3.90;1.30;;;17.50;94.40;;;;;;6134026;23;19999;-86
2021/08/10 00:34:54;;;;;;;;;;;;;;;;;;;;;
2021/08/10 00:37:51;;;;;;;7.63;1.70;;;17.50;94.70;;;;;;6165036;23;20036;-87
2021/08/10 00:40:25;;;;;;;2.63;1.25;;;17.50;94.80;;;;;;6134356;23;20009;-87
2021/08/10 00:43:00;;;;;;;3.65;1.50;;;17.40;94.70;;;;;;6160981;23;20005;-87
2021/08/10 00:45:28;;;;;;;1.80;1.10;;;17.40;94.70;;;;;;6153536;23;20016;-87
2021/08/10 00:47:56;;;;;;;5.35;1.75;;;17.40;94.80;;;;;;6134463;23;20032;-87
2021/08/10 00:50:22;;;;;;;4.05;1.52;;;17.40;94.70;;;;;;6134732;23;20017;-87
2021/08/10 00:52:48;;;;;;;2.40;1.45;;;17.30;94.70;;;;;;6134189;23;20115;-88
2021/08/10 00:55:22;;;;;;;4.80;1.10;;;17.30;94.70;;;;;;6134700;23;19998;-86
2021/08/10 00:57:58;;;;;;;2.78;1.30;;;17.30;94.70;;;;;;6133936;23;20261;-87
2021/08/10 01:00:26;;;;;;;2.10;1.02;;;17.30;94.70;;;;;;6134670;23;20008;-87
2021/08/10 01:03:15;;;;;;;;;;;;;;;;;;;;;
2021/08/10 01:05:53;;;;;;;2.47;1.20;;;17.20;94.80;;;;;;6160015;23;20021;-88
2021/08/10 01:08:39;;;;;;;1.45;1.15;;;17.20;94.80;;;;;;6133873;23;20077;-86
2021/08/10 01:14:55;;;;;;;4.60;1.30;;;17.20;94.70;;;;;;6156829;23;20125;-87
2021/08/10 01:17:27;;;;;;;1.75;1.10;;;17.10;94.80;;;;;;6134181;23;20009;-88
2021/08/10 01:20:37;;;;;;;3.60;1.33;;;17.10;94.80;;;;;;6134741;23;20008;-87
2021/08/10 01:23:17;;;;;;;4.85;1.00;;;17.10;94.80;;;;;;6132799;23;20017;-87
2021/08/10 01:26:21;;;;;;;1.73;0.90;;;17.10;94.90;;;;;;6133399;23;20028;-87
2021/08/10 01:29:03;;;;;;;2.70;1.55;;;17.10;94.90;;;;;;6132431;23;20019;-87
2021/08/10 01:31:37;;;;;;;3.90;1.45;;;17.00;94.90;;;;;;6134465;23;20009;-87
2021/08/10 01:34:25;;;;;;;2.50;1.30;;;17.00;95.10;;;;;;6135299;23;20008;-89
2021/08/10 01:37:19;;;;;;;4.13;1.67;;;17.00;95.20;;;;;;6134989;23;20040;-89
2021/08/10 01:39:48;;;;;;;3.00;1.20;;;17.00;95.30;;;;;;6134775;23;20020;-88
2021/08/10 01:45:23;;;;;;;3.45;1.10;;;16.90;95.40;;;;;;6159969;23;20052;-89
2021/08/10 01:47:50;;;;;;;2.25;1.05;;;16.90;95.50;;;;;;6132620;23;20037;-88
2021/08/10 01:50:32;;;;;;;2.17;1.45;;;16.80;95.60;;;;;;6134514;23;20009;-88
2021/08/10 01:53:55;;;;;;;;;;;;;;;;;;;;;
2021/08/10 01:59:55;;;;;;;4.55;1.13;;;16.70;95.70;;;;;;5966254;23;20031;-87
2021/08/10 02:02:27;;;;;;;2.75;1.50;;;16.70;95.70;;;;;;6045640;23;20074;-86
2021/08/10 02:05:02;;;;;;;3.15;1.30;;;16.60;95.80;;;;;;6090957;23;20005;-88
2021/08/10 02:07:31;;;;;;;1.95;1.30;;;16.60;96.00;;;;;;6133166;23;20021;-88
2021/08/10 02:09:58;;;;;;;2.85;1.58;;;16.50;96.10;;;;;;6134326;23;20037;-87
2021/08/10 02:12:29;;;;;;;6.07;2.00;;;16.50;96.20;;;;;;6134697;23;20021;-87
2021/08/10 02:14:57;;;;;;;2.03;1.20;;;16.50;96.20;;;;;;6136058;23;20537;-87
2021/08/10 02:17:25;;;;;;;4.45;2.25;;;16.40;96.30;;;;;;6162598;23;20005;-87
2021/08/10 02:19:51;;;;;;;3.88;1.27;;;16.40;96.30;;;;;;6135862;23;20006;-87
2021/08/10 02:22:22;;;;;;;10.43;1.67;;;16.40;96.40;;;;;;6135462;23;20016;-88
2021/08/10 02:25:25;;;;;;;2.33;1.25;;;16.40;96.40;;;;;;6135240;23;20242;-88
2021/08/10 02:28:00;;;;;;;2.35;1.40;;;16.30;96.40;;;;;;6117276;23;20005;-87
2021/08/10 02:30:30;;;;;;;2.80;1.50;;;16.30;96.50;;;;;;6135561;23;20010;-88
2021/08/10 02:32:59;;;;;;;3.67;1.35;;;16.20;96.60;;;;;;6135655;23;20006;-88
2021/08/10 02:35:28;;;;;;;1.90;1.15;;;16.20;96.80;;;;;;6161969;23;20330;-86
2021/08/10 02:37:58;;;;;;;2.60;1.70;;;16.20;96.80;;;;;;6162353;23;20032;-88
2021/08/10 02:40:27;;;;;;;2.35;1.10;;;16.20;96.80;;;;;;6136536;23;20009;-87
2021/08/10 02:42:57;;;;;;;1.90;1.27;;;16.10;96.90;;;;;;6135945;23;20330;-87
2021/08/10 02:45:26;;;;;;;5.40;1.80;;;16.10;97.00;;;;;;6135774;23;20033;-87
2021/08/10 02:47:54;;;;;;;6.45;1.95;;;16.10;96.90;;;;;;6136154;23;20031;-87
2021/08/10 02:50:23;;;;;;;3.88;1.20;;;16.10;97.00;;;;;;6135262;23;20002;-88
2021/08/10 02:52:53;;;;;;;2.63;1.38;;;16.10;97.00;;;;;;6135366;23;20234;-88
2021/08/10 02:55:34;;;;;;;3.28;1.23;;;16.10;97.00;;;;;;6144558;23;20040;-87
2021/08/10 02:58:17;;;;;;;6.82;1.63;;;16.10;97.10;;;;;;6176713;23;19986;-87
2021/08/10 03:00:49;;;;;;;2.67;1.80;;;16.00;97.10;;;;;;6151078;23;20009;-87
2021/08/10 03:03:19;;;;;;;5.13;1.95;;;16.00;97.10;;;;;;6138322;23;20009;-87
2021/08/10 03:06:01;;;;;;;3.15;1.75;;;16.00;97.10;;;;;;6136978;23;20006;-87
2021/08/10 03:12:28;;;;;;;6.95;1.95;;;16.00;97.10;;;;;;6160883;23;20325;-86
2021/08/10 03:15:06;;;;;;;5.93;1.63;;;15.90;97.20;;;;;;6129706;23;20302;-87
2021/08/10 03:17:42;;;;;;;7.15;2.35;;;15.90;97.20;;;;;;6160434;23;20005;-87
2021/08/10 03:20:26;;;;;;;3.85;1.98;;;15.90;97.30;;;;;;6135412;23;20009;-86
2021/08/10 03:23:09;;;;;;;2.70;1.50;;;15.90;97.30;;;;;;6134833;23;20013;-86
2021/08/10 03:25:41;;;;;;;3.63;1.98;;;15.90;97.40;;;;;;6134966;23;20013;-87
2021/08/10 03:28:26;;;;;;;4.10;2.42;;;15.90;97.40;;;;;;6135495;23;20002;-87
2021/08/10 03:31:08;;;;;;;3.38;1.60;;;15.90;97.30;;;;;;6135319;23;20029;-87
2021/08/10 03:34:03;;;;;;;5.85;1.88;;;15.90;97.40;;;;;;6133764;23;20342;-87
2021/08/10 03:36:52;;;;;;;3.92;1.73;;;15.90;97.40;;;;;;6130625;23;20652;-87
2021/08/10 03:39:36;;;;;;;5.28;1.98;;;15.90;97.40;;;;;;6135290;23;20009;-87
2021/08/10 03:42:16;;;;;;;3.35;1.98;;;15.90;97.50;;;;;;6136459;23;20005;-86
2021/08/10 03:48:19;;;;;;;5.63;1.70;;;15.90;97.50;;;;;;6160169;23;20052;-88
2021/08/10 03:54:38;;;;;;;5.82;2.08;;;15.90;97.40;;;;;;6160545;23;20009;-87
2021/08/10 04:10:32;;;;;;;;;;;;;;;;;;;;;
2021/08/10 04:13:24;;;;;;;6.03;2.00;;;16.20;97.60;;;;;;6159860;23;20051;-88
2021/08/10 04:16:09;;;;;;;5.32;1.90;;;16.20;97.60;;;;;;6134631;23;20016;-87
2021/08/10 04:19:19;;;;;;;3.58;1.98;;;16.30;97.60;;;;;;6131567;23;20092;-88
2021/08/10 04:22:05;;;;;;;4.93;1.67;;;16.30;97.50;;;;;;6133076;23;20009;-87
2021/08/10 04:24:57;;;;;;;4.55;1.98;;;16.40;97.40;;;;;;6135293;23;20017;-88
2021/08/10 04:27:26;;;;;;;3.28;1.83;;;16.50;97.30;;;;;;6134816;23;20032;-87
2021/08/10 04:33:41;;;;;;;3.63;1.35;;;16.60;96.90;;;;;;6001958;23;20023;-88
2021/08/10 04:40:09;;;;;;;3.38;1.52;;;16.80;96.50;;;;;;6009029;23;20016;-88
2021/08/10 04:45:45;;;;;;;2.20;1.27;;;17.00;96.50;;;;;;6158360;23;20369;-89
2021/08/10 04:48:41;;;;;;;2.58;1.50;;;17.10;96.40;;;;;;6134694;23;20005;-88
2021/08/10 04:51:29;;;;;;;2.35;1.25;;;17.10;96.10;;;;;;6114255;23;20080;-89
2021/08/10 04:57:29;;;;;;;7.93;1.45;;;17.30;95.80;;;;;;6155062;23;20369;-88
2021/08/10 05:00:08;;;;;;;5.75;1.67;;;17.40;95.40;;;;;;6132636;23;20369;-86
2021/08/10 05:06:11;;;;;;;;;;;;;;;;;;;;;
2021/08/10 05:08:42;;;;;;;6.65;1.73;;;17.50;94.90;;;;;;6156681;23;20455;-86
2021/08/10 05:11:09;;;;;;;8.27;1.90;;;17.50;94.70;;;;;;6131829;23;20005;-89
2021/08/10 05:13:35;;;;;;;5.38;1.60;;;17.50;94.70;;;;;;6143449;23;20238;-88
2021/08/10 05:16:05;;;;;;;6.50;2.08;;;17.60;94.60;;;;;;6141678;23;20277;-89
2021/08/10 05:18:36;;;;;;;7.68;1.77;;;17.70;94.60;;;;;;6133239;23;20009;-88
2021/08/10 05:21:02;;;;;;;8.40;1.52;;;17.70;94.50;;;;;;6132897;23;20404;-88
2021/08/10 05:23:36;;;;;;;9.63;1.77;;;17.80;94.40;;;;;;6133035;23;20013;-88
2021/08/10 05:26:02;;;;;;;3.55;1.33;;;17.80;94.50;;;;;;6134082;23;20069;-89
2021/08/10 05:28:29;;;;;;;14.48;2.25;;;17.90;94.40;;;;;;6133650;23;20322;-89
2021/08/10 05:30:55;;;;;;;4.25;1.45;;;18.00;94.40;;;;;;6145840;23;20024;-88
2021/08/10 05:33:21;;;;;;;4.88;1.90;;;18.10;94.20;;;;;;6150283;23;20005;-89
2021/08/10 05:35:50;;;;;;;3.10;1.42;;;18.10;94.10;;;;;;6143743;23;20092;-90
2021/08/10 05:38:15;;;;;;;3.17;1.20;;;18.20;93.30;;;;;;6136267;23;20006;-88
2021/08/10 05:40:41;;;;;;;7.93;2.38;;;18.30;93.30;;;;;;6134789;23;20017;-87
2021/08/10 05:43:09;;;;;;;3.85;1.35;;;18.30;93.30;;;;;;6132554;23;20041;-88
2021/08/10 05:45:36;;;;;;;4.68;1.50;;;18.40;93.20;;;;;;6132919;23;20005;-88
2021/08/10 05:48:05;;;;;;;2.88;1.45;;;18.50;93.20;;;;;;6159008;23;20008;-89
2021/08/10 05:50:34;;;;;;;4.53;1.40;;;18.50;93.00;;;;;;6134096;23;20005;-89
2021/08/10 05:52:59;;;;;;;4.35;1.20;;;18.60;92.80;;;;;;6135425;23;20005;-89
2021/08/10 05:55:26;;;;;;;3.35;1.27;;;18.70;92.90;;;;;;6134867;23;20036;-89
2021/08/10 05:57:51;;;;;;;3.65;1.40;;;18.80;92.80;;;;;;6135065;23;20018;-87
2021/08/10 06:00:18;;;;;;;2.55;1.40;;;18.80;92.60;;;;;;6135717;23;20246;-89
2021/08/10 06:02:44;;;;;;;9.80;1.40;;;18.80;92.40;;;;;;6161368;23;20005;-89
2021/08/10 06:05:09;;;;;;;3.78;1.33;;;18.90;92.30;;;;;;6136521;23;20041;-89
2021/08/10 06:07:35;;;;;;;6.07;1.77;;;18.90;92.20;;;;;;6147004;23;20013;-90
2021/08/10 06:10:01;;;;;;;3.95;1.23;;;18.90;92.30;;;;;;6143537;23;20024;-89
2021/08/10 06:12:36;;;;;;;2.10;1.27;;;18.90;91.90;;;;;;6136276;23;20032;-89
2021/08/10 06:15:02;;;;;;;4.13;2.20;;;18.90;91.90;;;;;;6138724;23;20041;-90
2021/08/10 06:17:30;;;;;;;5.85;1.65;;;18.90;92.20;;;;;;6136261;23;20001;-89
2021/08/10 06:19:56;;;;;;;2.83;1.10;;;18.90;92.30;;;;;;6135828;23;20384;-90
2021/08/10 06:22:21;;;;;;;5.78;1.60;;;18.90;92.10;;;;;;6160135;23;20005;-88
2021/08/10 06:24:47;;;;;;;4.65;1.40;;;19.00;92.50;;;;;;6136068;23;20263;-89
2021/08/10 06:27:13;;;;;;;3.03;1.40;;;19.00;92.30;;;;;;6136223;23;20009;-89
2021/08/10 06:29:38;;;;;;;4.35;1.20;;;19.10;92.20;;;;;;6138229;23;20016;-89
2021/08/10 06:32:04;;;;;;;2.15;1.05;;;19.10;92.00;;;;;;6135849;23;20396;-89
2021/08/10 06:34:30;;;;;;;4.22;1.38;;;19.10;91.90;;;;;;6135975;23;20096;-89
2021/08/10 06:36:55;;;;;;;3.78;1.20;;;19.10;91.90;;;;;;6134548;23;20013;-89
2021/08/10 06:39:21;;;;;;;3.95;1.30;;;19.20;92.50;;;;;;6135387;23;20139;-89
2021/08/10 06:41:46;;;;;;;6.32;1.25;;;19.20;92.70;;;;;;6134062;23;20013;-89
2021/08/10 06:44:12;;;;;;;3.95;1.40;;;19.20;92.60;;;;;;6138141;23;20001;-90
2021/08/10 06:46:37;;;;;;;3.88;1.58;;;19.30;92.40;;;;;;6167866;23;20308;-88
2021/08/10 06:49:03;;;;;;;2.20;1.45;;;19.30;92.90;;;;;;6141672;23;20002;-89
2021/08/10 06:51:28;;;;;;;3.33;1.80;;;19.40;93.10;;;;;;6148668;23;19997;-87
2021/08/10 06:53:54;;;;;;;3.72;1.60;;;19.40;91.90;;;;;;6138895;23;20013;-88
2021/08/10 06:56:20;;;;;;;5.30;1.70;;;19.50;92.50;;;;;;6136519;23;20005;-87
2021/08/10 06:58:45;;;;;;;4.68;1.38;;;19.50;92.00;;;;;;6161045;23;20334;-89
2021/08/10 07:01:11;;;;;;;5.15;1.60;;;19.60;92.00;;;;;;6164110;23;20009;-89
2021/08/10 07:03:36;;;;;;;2.75;1.13;;;19.50;91.90;;;;;;6140978;23;20013;-89
2021/08/10 07:06:02;;;;;;;6.00;1.60;;;19.40;91.90;;;;;;6136239;23;20009;-89
2021/08/10 07:08:27;;;;;;;3.58;1.98;;;19.40;92.30;;;;;;6135537;23;20011;-88
2021/08/10 07:10:53;;;;;;;5.38;1.42;;;19.40;92.40;;;;;;6134917;23;20002;-89
2021/08/10 07:13:21;;;;;;;4.22;1.40;;;19.40;92.60;;;;;;6135474;23;20384;-89
2021/08/10 07:15:47;;;;;;;3.58;1.60;;;19.40;92.80;;;;;;6136128;23;20009;-89
2021/08/10 07:18:13;;;;;;;4.93;1.30;;;19.40;93.30;;;;;;6135459;23;20093;-88
2021/08/10 07:20:39;;;;;;;4.72;1.58;;;19.50;93.60;;;;;;6134855;23;20013;-89
2021/08/10 07:23:04;;;;;;;5.18;1.83;;;19.50;93.40;;;;;;6135192;23;20013;-89
2021/08/10 07:25:30;;;;;;;2.97;1.40;;;19.50;93.30;;;;;;6143411;23;20147;-89
2021/08/10 07:27:58;;;;;;;4.15;1.80;;;19.60;93.20;;;;;;6140380;23;20006;-89
2021/08/10 07:30:27;;;;;;;3.63;1.60;;;19.70;93.00;;;;;;6134463;23;20342;-89
2021/08/10 07:32:53;;;;;;;5.82;1.60;;;19.70;93.10;;;;;;6134048;23;20032;-89
2021/08/10 07:35:19;;;;;;;3.42;1.98;;;19.80;93.90;;;;;;6160976;23;19997;-88
2021/08/10 07:37:44;;;;;;;4.82;1.73;;;19.90;93.90;;;;;;6134774;23;20013;-88
2021/08/10 07:40:12;;;;;;;6.57;1.85;;;19.90;93.10;;;;;;6160615;23;20073;-88
2021/08/10 07:42:38;;;;;;;5.43;2.03;;;20.00;93.40;;;;;;6132934;23;20002;-88
2021/08/10 07:45:06;;;;;;;3.50;1.77;;;20.00;93.70;;;;;;6134730;23;20321;-89
2021/08/10 07:47:37;;;;;;;3.28;1.52;;;20.00;93.70;;;;;;6134528;23;20009;-88
2021/08/10 07:50:05;;;;;;;5.57;2.17;;;20.00;93.80;;;;;;6132635;23;20002;-88
2021/08/10 07:52:31;;;;;;;5.60;1.90;;;20.00;93.90;;;;;;6134385;23;20024;-89
2021/08/10 07:54:56;;;;;;;3.55;1.40;;;20.00;93.50;;;;;;6134505;23;20020;-89
2021/08/10 07:57:27;;;;;;;5.80;1.50;;;19.90;92.10;;;;;;6159826;23;20246;-89
2021/08/10 07:59:55;;;;;;;5.57;1.58;;;19.80;92.40;;;;;;6134451;23;20072;-88
2021/08/10 08:02:23;;;;;;;5.03;1.42;;;19.90;93.20;;;;;;6139810;23;20036;-89
2021/08/10 08:04:49;;;;;;;5.05;1.40;;;19.90;93.40;;;;;;6166720;23;20025;-89
2021/08/10 08:07:18;;;;;;;5.28;1.40;;;20.00;92.40;;;;;;6136031;23;20412;-88
2021/08/10 08:09:45;;;;;;;2.35;1.30;;;20.00;92.70;;;;;;6134843;23;20385;-89
2021/08/10 08:12:11;;;;;;;5.93;2.03;;;20.10;92.50;;;;;;6133691;23;20020;-89
2021/08/10 08:14:37;;;;;;;4.80;1.50;;;20.10;92.70;;;;;;6134247;23;20013;-88
2021/08/10 08:17:05;;;;;;;8.45;1.65;;;20.20;92.70;;;;;;6134490;23;20465;-88
2021/08/10 08:19:31;;;;;;;2.45;1.45;;;20.20;92.90;;;;;;6133695;23;20666;-88
2021/08/10 08:22:00;;;;;;;5.75;1.55;;;20.20;92.80;;;;;;6134276;23;20041;-89
2021/08/10 08:24:25;;;;;;;4.13;1.88;;;20.10;93.00;;;;;;6132250;23;20334;-88
2021/08/10 08:26:51;;;;;;;4.93;1.17;;;20.00;92.80;;;;;;6133267;23;20064;-88
2021/08/10 08:29:16;;;;;;;6.35;1.98;;;19.80;93.60;;;;;;6160324;23;20137;-88
2021/08/10 08:31:42;;;;;;;6.18;2.00;;;19.70;94.30;;;;;;6134731;23;20242;-87
2021/08/10 08:34:07;;;;;;;8.73;1.83;;;19.40;94.80;;;;;;6164211;23;20005;-88
2021/08/10 08:36:33;;;;;;;4.50;2.15;;;19.20;95.30;;;;;;6164576;23;20012;-89
2021/08/10 08:38:58;;;;;;;4.78;1.80;;;19.10;95.80;;;;;;6145588;23;20454;-88
2021/08/10 08:41:24;;;;;;;3.95;1.50;;;18.90;96.10;;;;;;6132749;23;20337;-88
2021/08/10 08:43:50;;;;;;;4.63;1.92;;;18.70;96.50;;;;;;6159323;23;20040;-87
2021/08/10 08:46:16;;;;;;;5.18;2.08;;;18.60;96.80;;;;;;6133697;23;20016;-87
2021/08/10 08:48:45;;;;;;;4.38;2.30;;;18.50;97.20;;;;;;6133403;23;20009;-86
2021/08/10 08:51:11;;;;;;;5.63;1.83;;;18.50;97.60;;;;;;6133015;23;20081;-88
2021/08/10 08:53:49;;;;;;;4.97;1.77;;;18.50;98.00;;;;;;6158538;23;20231;-88
2021/08/10 08:56:21;;;;;;;5.55;2.13;;;18.60;98.20;;;;;;6132337;23;20257;-87
2021/08/10 08:58:47;;;;;;;6.03;1.98;;;18.60;98.10;;;;;;6133837;23;20005;-88
2021/08/10 09:01:13;;;;;;;8.52;2.38;;;18.70;98.00;;;;;;6132994;23;20242;-87
2021/08/10 09:03:41;;;;;;;4.55;1.80;;;18.70;98.00;;;;;;6134132;23;20021;-88
2021/08/10 09:06:07;;;;;;;3.42;1.90;;;18.70;98.20;;;;;;6136293;23;20014;-89
2021/08/10 09:08:41;;;;;;;3.28;1.98;;;18.70;97.60;;;;;;6158980;23;20081;-88
2021/08/10 09:11:11;;;;;;;9.57;3.00;;;18.70;97.80;;;;;;6136784;23;20274;-88
2021/08/10 09:13:58;;;;;;;5.00;2.38;;;18.70;98.00;;;;;;6172987;23;20241;-88
2021/08/10 09:16:24;;;;;;;5.68;2.20;;;18.80;98.30;;;;;;6135837;23;20005;-89
2021/08/10 09:18:50;;;;;;;4.45;2.10;;;18.70;98.10;;;;;;6134050;23;20009;-88
2021/08/10 09:21:18;;;;;;;4.43;2.15;;;18.70;98.10;;;;;;6132853;23;20274;-88
2021/08/10 09:23:51;;;;;;;3.70;2.33;;;18.70;98.30;;;;;;6133068;23;20037;-88
2021/08/10 09:26:23;;;;;;;6.65;3.40;;;18.70;98.10;;;;;;6133253;23;20009;-88
2021/08/10 09:28:55;;;;;;;4.87;2.23;;;18.70;98.20;;;;;;6133681;23;20678;-89
2021/08/10 09:31:39;;;;;;;4.70;2.78;;;18.70;98.40;;;;;;6133382;23;20020;-88
2021/08/10 09:34:18;;;;;;;5.47;2.38;;;18.70;98.70;;;;;;6133248;23;20029;-87
2021/08/10 09:36:44;;;;;;;6.63;2.35;;;18.70;98.60;;;;;;6133468;23;20017;-88
2021/08/10 09:39:10;;;;;;;5.38;2.75;;;18.70;98.60;;;;;;6134087;23;20396;-88
2021/08/10 09:41:36;;;;;;;7.28;2.67;;;18.70;98.50;;;;;;6132577;23;20011;-88
2021/08/10 09:44:13;;;;;;;4.25;2.55;;;18.70;98.30;;;;;;6133417;23;20009;-87
2021/08/10 09:46:48;;;;;;;3.95;2.17;;;18.70;98.30;;;;;;6161141;23;20012;-88
2021/08/10 09:49:14;;;;;;;5.93;2.05;;;18.70;98.20;;;;;;6153766;23;19997;-87
2021/08/10 09:51:46;;;;;;;4.53;2.05;;;18.70;98.10;;;;;;6132342;23;20005;-88
2021/08/10 09:54:14;;;;;;;6.10;2.58;;;18.70;98.40;;;;;;6158773;23;20005;-88
2021/08/10 09:56:51;;;;;;;5.30;2.40;;;18.80;99.20;;;;;;6133720;23;20006;-88
2021/08/10 09:59:19;;;;;;;8.85;2.50;;;18.90;99.30;;;;;;6133376;23;20265;-88
2021/08/10 10:01:47;;;;;;;6.97;2.50;;;19.00;98.80;;;;;;6160657;23;20005;-89
2021/08/10 10:04:19;;;;;;;7.03;2.05;;;19.10;98.40;;;;;;6139569;23;20068;-89
2021/08/10 10:06:47;;;;;;;3.67;1.87;;;19.30;98.20;;;;;;6132568;23;20010;-88
2021/08/10 10:09:14;;;;;;;6.57;2.75;;;19.40;97.90;;;;;;6157510;23;20240;-87
2021/08/10 10:11:42;;;;;;;4.07;2.28;;;19.50;98.30;;;;;;6131761;23;20346;-88
2021/08/10 10:14:09;;;;;;;4.97;1.95;;;19.50;98.10;;;;;;6133559;23;20345;-88
2021/08/10 10:16:36;;;;;;;4.47;2.17;;;19.60;98.10;;;;;;6134333;23;20017;-87
2021/08/10 10:19:11;;;;;;;4.10;1.88;;;19.70;98.00;;;;;;6132809;23;20032;-89
2021/08/10 10:21:46;;;;;;;5.18;1.85;;;19.80;97.30;;;;;;6135155;23;20089;-88
2021/08/10 10:24:13;;;;;;;2.70;1.40;;;19.90;97.60;;;;;;6146369;23;20036;-87
2021/08/10 10:26:46;;;;;;;6.15;1.40;;;20.00;97.00;;;;;;6138021;23;20380;-88
2021/08/10 10:29:12;;;;;;;;;;;20.10;96.50;;;;;;6140649;23;20033;-88
2021/08/10 10:31:41;;;;;;;2.78;1.42;;;20.20;97.00;;;;;;6135263;23;19912;-92
2021/08/10 10:34:12;;;;;;;4.25;1.48;;;20.30;96.90;;;;;;6159208;23;20330;-87
2021/08/10 10:36:39;;;;;;;5.60;2.08;;;20.40;96.50;;;;;;6136280;23;20020;-88
2021/08/10 10:39:07;;;;;;;4.53;1.63;;;20.40;96.00;;;;;;6166058;23;20006;-95
2021/08/10 10:42:01;;;;;;;2.67;1.55;;;20.60;95.80;;;;;;6105921;23;20018;-91
2021/08/10 10:44:44;;;;;;;2.28;1.40;;;20.60;96.00;;;;;;6138539;23;20016;-90
2021/08/10 10:51:19;;;;;;;3.53;1.67;;;20.70;95.10;;;;;;6074385;23;20413;-91
2021/08/10 10:53:48;;;;;;;3.65;1.50;;;20.80;96.20;;;;;;6161193;23;20005;-89
2021/08/10 10:59:50;;;;;;;4.20;1.75;;;21.20;95.50;;;;;;6177021;23;20040;-88
2021/08/10 11:02:16;;;;;;;2.75;1.77;;;21.50;96.00;;;;;;6135466;23;20025;-90
2021/08/10 11:05:17;;;;;;;4.10;1.40;;;21.70;95.20;;;;;;6135976;23;20108;-90
2021/08/10 11:07:53;;;;;;;3.78;2.00;;;21.90;94.50;;;;;;6134575;23;20012;-91
2021/08/10 11:10:52;;;;;;;4.85;1.80;;;22.10;95.00;;;;;;6135498;23;20120;-89
2021/08/10 11:13:34;;;;;;;5.70;2.00;;;22.20;94.50;;;;;;6133294;23;20010;-90
2021/08/10 11:16:00;;;;;;;3.90;1.67;;;22.30;95.50;;;;;;6135961;23;20016;-89
2021/08/10 11:18:33;;;;;;;7.82;2.33;;;22.50;93.30;;;;;;6135570;23;20009;-90
2021/08/10 11:21:25;;;;;;;4.38;1.65;;;22.70;93.50;;;;;;6134491;23;20032;-89
2021/08/10 11:23:53;;;;;;;2.47;1.10;;;22.90;92.20;;;;;;6129142;23;20032;-89
2021/08/10 11:26:19;;;;;;;5.18;1.90;;;23.10;92.10;;;;;;6135531;23;20016;-89
2021/08/10 11:28:54;;;;;;;4.90;1.98;;;23.30;92.70;;;;;;6134410;23;20002;-89
2021/08/10 11:31:33;;;;;;;4.28;1.63;;;23.40;91.30;;;;;;6135839;23;20029;-88
2021/08/10 11:34:03;;;;;;;2.67;1.60;;;23.50;91.30;;;;;;6135570;23;20028;-89
2021/08/10 11:36:31;;;;;;;4.38;1.70;;;23.50;91.40;;;;;;6141882;23;20013;-89
2021/08/10 11:39:02;;;;;;;3.20;1.65;;;23.50;91.20;;;;;;6140261;23;20210;-89
2021/08/10 11:41:28;;;;;;;3.57;1.97;;;23.50;91.40;;;;;;6162125;23;20016;-89
2021/08/10 11:43:56;;;;;;;5.78;1.42;;;23.50;92.10;;;;;;6135335;23;20255;-90
2021/08/10 11:46:22;;;;;;;4.55;2.05;;;23.50;91.40;;;;;;6134884;23;20005;-88
2021/08/10 11:48:56;;;;;;;5.78;1.52;;;23.60;91.20;;;;;;6134985;23;20040;-89
2021/08/10 11:51:39;;;;;;;3.20;1.25;;;23.80;90.90;;;;;;6133020;23;20385;-88
2021/08/10 11:54:17;;;;;;;2.45;1.60;;;23.90;90.80;;;;;;6167004;23;20005;-88
2021/08/10 11:57:01;;;;;;;3.50;1.10;;;24.10;90.10;;;;;;6159298;23;20005;-87
2021/08/10 11:59:27;;;;;;;2.97;1.27;;;24.20;88.30;;;;;;6159475;23;20020;-89
2021/08/10 12:01:54;;;;;;;2.25;1.10;;;24.40;90.70;;;;;;6133383;23;20009;-88
2021/08/10 12:04:28;;;;;;;3.25;1.35;;;24.60;90.80;;;;;;6133354;23;20014;-88
2021/08/10 12:06:56;;;;;;;3.95;1.33;;;24.80;86.30;;;;;;6159523;23;20072;-88
2021/08/10 12:09:35;;;;;;;3.28;1.30;;;24.70;85.30;;;;;;6158909;23;20013;-88
2021/08/10 12:12:03;;;;;;;3.97;1.38;;;24.70;85.50;;;;;;6133184;23;20392;-89
2021/08/10 12:14:31;;;;;;;2.65;1.15;;;24.80;87.00;;;;;;6134059;23;20080;-89
2021/08/10 12:17:04;;;;;;;2.03;1.17;;;24.80;86.50;;;;;;6133694;23;20014;-89
2021/08/10 12:19:35;;;;;;;2.15;1.20;;;24.80;85.50;;;;;;6133897;23;20005;-88
2021/08/10 12:22:04;;;;;;;6.45;1.33;;;24.80;84.70;;;;;;6157400;23;20006;-89
2021/08/10 12:24:34;;;;;;;4.65;1.13;;;24.80;84.40;;;;;;6133368;23;20009;-87
2021/08/10 12:27:02;;;;;;;2.00;1.27;;;24.80;83.70;;;;;;6158760;23;20276;-90
2021/08/10 12:29:39;;;;;;;4.25;1.00;;;24.90;82.40;;;;;;6152757;23;20033;-90
2021/08/10 12:32:06;;;;;;;2.55;1.10;;;25.10;86.00;;;;;;6159646;23;20001;-88
2021/08/10 12:34:34;;;;;;;5.47;1.00;;;25.20;79.70;;;;;;6133431;23;20013;-88
2021/08/10 12:37:00;;;;;;;1.83;1.00;;;25.10;80.00;;;;;;6158459;23;20080;-88
2021/08/10 12:39:26;;;;;;;3.08;1.20;;;25.20;80.70;;;;;;6133266;23;20017;-88
2021/08/10 12:41:53;;;;;;;3.17;0.85;;;25.00;78.20;;;;;;6133099;23;20013;-89
2021/08/10 12:44:23;;;;;;;1.60;1.23;;;24.90;79.70;;;;;;6157988;23;20056;-90
2021/08/10 12:47:06;;;;;;;1.80;1.40;;;25.00;80.00;;;;;;6134269;23;20070;-89
2021/08/10 12:49:43;;;;;;;3.72;1.08;;;25.10;81.30;;;;;;6133868;23;20092;-88
2021/08/10 12:52:18;;;;;;;5.43;1.10;;;25.30;79.40;;;;;;6134509;23;19997;-90
2021/08/10 12:54:47;;;;;;;3.28;1.10;;;25.40;79.90;;;;;;6136053;23;20227;-90
2021/08/10 12:57:22;;;;;;;2.90;0.90;;;25.50;79.10;;;;;;6133403;23;20029;-88
2021/08/10 12:59:53;;;;;;;3.60;0.75;;;25.70;78.50;;;;;;6132465;23;20059;-88
2021/08/10 13:02:32;;;;;;;2.83;1.05;;;25.90;77.80;;;;;;6131990;23;20009;-88
2021/08/10 13:04:58;;;;;;;2.00;0.80;;;26.00;76.50;;;;;;6132837;23;20013;-89
2021/08/10 13:07:24;;;;;;;1.98;1.08;;;26.10;75.40;;;;;;6158372;23;20005;-89
2021/08/10 13:09:54;;;;;;;2.95;1.00;;;26.10;76.20;;;;;;6132562;23;20060;-88
2021/08/10 13:12:20;;;;;;;4.05;1.13;;;26.10;76.00;;;;;;6138466;23;20057;-90
2021/08/10 13:15:06;;;;;;;1.73;0.90;;;26.10;72.20;;;;;;6132894;23;20006;-88
2021/08/10 13:17:40;;;;;;;1.25;0.77;;;26.10;73.20;;;;;;6133066;23;20005;-88
2021/08/10 13:20:15;;;;;;;2.22;0.70;;;25.90;74.80;;;;;;6132115;23;20093;-87
2021/08/10 13:22:54;;;;;;;1.70;1.00;;;25.80;75.30;;;;;;6140470;23;20031;-88
2021/08/10 13:25:25;;;;;;;2.05;0.80;;;25.70;75.50;;;;;;6139840;23;20072;-88
2021/08/10 13:28:02;;;;;;;2.08;0.93;;;25.60;73.20;;;;;;6131799;23;20295;-88
2021/08/10 13:30:29;;;;;;;2.60;1.33;;;25.70;74.10;;;;;;6156105;23;20012;-88
2021/08/10 13:33:10;;;;;;;1.60;1.00;;;25.70;73.60;;;;;;6156489;23;20032;-89
2021/08/10 13:35:37;;;;;;;3.45;1.15;;;25.80;74.70;;;;;;6131710;23;20010;-88
2021/08/10 13:38:04;;;;;;;1.45;0.95;;;25.90;73.30;;;;;;6131204;23;20056;-88
2021/08/10 13:40:31;;;;;;;2.50;0.95;;;26.00;74.40;;;;;;6131169;23;20012;-87
2021/08/10 13:42:57;;;;;;;2.83;1.10;;;26.10;73.10;;;;;;6130200;23;20365;-87
2021/08/10 13:45:24;;;;;;;3.10;1.40;;;26.20;72.00;;;;;;6133203;23;20005;-87
2021/08/10 13:47:51;;;;;;;1.70;1.00;;;26.40;73.40;;;;;;6158355;23;20036;-88
2021/08/10 13:50:17;;;;;;;1.33;0.88;;;26.60;72.20;;;;;;6132950;23;20085;-88
2021/08/10 13:52:42;;;;;;;2.35;0.90;;;26.60;70.60;;;;;;6133419;23;20001;-88
2021/08/10 13:55:09;;;;;;;1.67;0.88;;;26.70;72.40;;;;;;6159000;23;20219;-88
2021/08/10 13:57:34;;;;;;;2.38;1.27;;;26.70;73.50;;;;;;6171895;23;20008;-88
2021/08/10 13:59:59;;;;;;;2.78;1.10;;;26.70;73.30;;;;;;6167505;23;20013;-88
2021/08/10 14:02:25;;;;;;;2.25;1.13;;;26.70;72.70;;;;;;6133951;23;20302;-87
2021/08/10 14:04:50;;;;;;;2.20;1.00;;;26.60;71.90;;;;;;6159284;23;20008;-87
2021/08/10 14:07:18;;;;;;;2.20;0.80;;;26.50;74.00;;;;;;6132741;23;20010;-87
2021/08/10 14:09:43;;;;;;;4.55;1.33;;;26.60;74.00;;;;;;6159607;23;20008;-87
2021/08/10 14:12:09;;;;;;;1.60;1.00;;;26.70;72.90;;;;;;6134427;23;20014;-87
2021/08/10 14:14:34;;;;;;;1.67;1.00;;;26.80;73.10;;;;;;6136372;23;20301;-90
2021/08/10 14:17:00;;;;;;;4.55;1.52;;;26.80;73.10;;;;;;6138636;23;20385;-94
2021/08/10 14:19:26;;;;;;;1.67;0.90;;;26.90;71.90;;;;;;6139856;23;20001;-89